Flight Track Log - Related Links

Times and Time Zones

All times are in EDT time to prevent confusion due to time zone crossing. See the N502QS flight status page for this flight to view local times or setup timezone preferences in your user account.

Time Position Orientation Groundspeed Altitude Reporting Facility
EDT Latitude Longitude Course Direction KTS MPH feet Rate Location/Type
Mon 06:15:00 PM -1.6014 -144.1085 19° North  Level Estimated
Mon 06:16:00 PM -1.4764 -144.0670 18° North  Level Estimated
Mon 06:17:00 PM -1.3514 -144.0254 18° North  Level Estimated
Mon 06:18:00 PM -1.2264 -143.9839 18° North  Level Estimated
Mon 06:19:00 PM -1.1014 -143.9423 18° North  Level Estimated
Mon 06:20:00 PM -0.9764 -143.9008 18° North  Level Estimated
Mon 06:21:00 PM -0.8514 -143.8593 18° North  Level Estimated
Mon 06:22:00 PM -0.7264 -143.8177 18° North  Level Estimated
Mon 06:23:00 PM -0.6014 -143.7762 18° North  Level Estimated
Mon 06:24:00 PM -0.4764 -143.7347 18° North  Level Estimated
Mon 06:25:00 PM -0.3514 -143.6932 18° North  Level Estimated
Mon 06:26:00 PM -0.2264 -143.6517 18° North  Level Estimated
Mon 06:27:00 PM -0.1014 -143.6102 18° North  Level Estimated
Mon 06:28:00 PM 0.0236 -143.5686 18° North  Level Estimated
Mon 06:29:00 PM 0.1486 -143.5271 18° North  Level Estimated
Mon 06:30:00 PM 0.2736 -143.4856 18° North  Level Estimated
Mon 06:31:00 PM 0.3986 -143.4441 18° North  Level Estimated
Mon 06:32:00 PM 0.5236 -143.4026 18° North  Level Estimated
Mon 06:33:00 PM 0.6486 -143.3610 18° North  Level Estimated
Mon 06:34:00 PM 0.7736 -143.3195 18° North  Level Estimated
Mon 06:35:00 PM 0.8986 -143.2780 18° North  Level Estimated
Mon 06:36:00 PM 1.0236 -143.2365 18° North  Level Estimated
Mon 06:37:00 PM 1.1486 -143.1949 18° North  Level Estimated
Mon 06:38:00 PM 1.2736 -143.1534 18° North  Level Estimated
Mon 06:39:00 PM 1.3986 -143.1118 18° North  Level Estimated
Mon 06:40:00 PM 1.5236 -143.0703 18° North  Level Estimated
Mon 06:41:00 PM 1.6486 -143.0287 18° North  Level Estimated
Mon 06:42:00 PM 1.7736 -142.9872 18° North  Level Estimated
Mon 06:43:00 PM 1.8986 -142.9456 18° North  Level Estimated
Mon 06:44:00 PM 2.0236 -142.9041 18° North  Level Estimated
Mon 06:45:00 PM 2.1486 -142.8625 18° North  Level Estimated
Mon 06:46:00 PM 2.2736 -142.8209 18° North  Level Estimated
Mon 06:47:00 PM 2.3985 -142.7793 18° North  Level Estimated
Mon 06:48:00 PM 2.5235 -142.7377 18° North  Level Estimated
Mon 06:49:00 PM 2.6485 -142.6961 18° North  Level Estimated
Mon 06:50:00 PM 2.7735 -142.6545 18° North  Level Estimated
Mon 06:51:00 PM 2.8985 -142.6129 18° North  Level Estimated
Mon 06:52:00 PM 3.0235 -142.5713 18° North  Level Estimated
Mon 06:53:00 PM 3.1485 -142.5296 18° North  Level Estimated
Mon 06:54:00 PM 3.2734 -142.4880 18° North  Level Estimated
Mon 06:55:00 PM 3.3984 -142.4463 18° North  Level Estimated
Mon 06:56:00 PM 3.5234 -142.4047 18° North  Level Estimated
Mon 06:57:00 PM 3.6484 -142.3630 18° North  Level Estimated
Mon 06:58:00 PM 3.7734 -142.3213 18° North  Level Estimated
Mon 06:59:00 PM 3.8983 -142.2796 18° North  Level Estimated
Mon 07:00:00 PM 4.0233 -142.2379 18° North  Level Estimated
Mon 07:01:00 PM 4.1483 -142.1961 18° North  Level Estimated
Mon 07:02:00 PM 4.2733 -142.1544 18° North  Level Estimated
Mon 07:03:00 PM 4.3982 -142.1126 18° North  Level Estimated
Mon 07:04:00 PM 4.5232 -142.0709 18° North  Level Estimated
Mon 07:05:00 PM 4.6481 -142.0291 18° North  Level Estimated
Mon 07:06:00 PM 4.7731 -141.9873 18° North  Level Estimated
Mon 07:07:00 PM 4.8980 -141.9455 18° North  Level Estimated
Mon 07:08:00 PM 5.0230 -141.9037 18° North  Level Estimated
Mon 07:09:00 PM 5.1480 -141.8618 18° North  Level Estimated
Mon 07:10:00 PM 5.2729 -141.8199 18° North  Level Estimated
Mon 07:11:00 PM 5.3978 -141.7781 18° North  Level Estimated
Mon 07:11:49 PM 3.0000 -142.0000 360° North 458 527 41,000  Level Oakland Oceanic (ODAPS)
Mon 07:12:00 PM 5.5228 -141.7362 18° North  Level Estimated
Mon 07:13:00 PM 5.6477 -141.6942 18° North  Level Estimated
Mon 07:14:00 PM 5.7727 -141.6523 18° North  Level Estimated
Mon 07:15:00 PM 5.8976 -141.6104 18° North  Level Estimated
Mon 07:16:00 PM 6.0225 -141.5684 18° North  Level Estimated
Mon 07:17:00 PM 6.1474 -141.5264 18° North  Level Estimated
Mon 07:18:00 PM 4.7949 -142.0000 360° North 458 527 41,000  Level FlightAware Transoceanic
Mon 07:19:00 PM 4.9231 -142.0000 360° North 458 527 41,000  Level FlightAware Transoceanic
Mon 07:20:00 PM 5.0513 -142.0000 360° North 458 527 41,000  Level FlightAware Transoceanic
Mon 07:21:00 PM 5.1795 -142.0000 360° North 458 527 41,000  Level FlightAware Transoceanic
Mon 07:22:00 PM 5.3077 -142.0000 360° North 458 527 41,000  Level FlightAware Transoceanic
Mon 07:23:00 PM 5.4359 -142.0000 360° North 458 527 41,000  Level FlightAware Transoceanic
Mon 07:24:00 PM 5.5641 -142.0000 360° North 458 527 41,000  Level FlightAware Transoceanic
Mon 07:25:00 PM 5.6923 -142.0000 360° North 458 527 41,000  Level FlightAware Transoceanic
Mon 07:26:00 PM 5.8205 -142.0000 360° North 458 527 41,000  Level FlightAware Transoceanic
Mon 07:27:00 PM 5.9487 -142.0000 360° North 458 527 41,000  Level FlightAware Transoceanic
Mon 07:28:00 PM 6.0769 -142.0000 360° North 458 527 41,000  Level FlightAware Transoceanic
Mon 07:29:00 PM 6.2051 -142.0000 360° North 458 527 41,000  Level FlightAware Transoceanic
Mon 07:30:00 PM 6.3333 -142.0000 360° North 458 527 41,000  Level FlightAware Transoceanic
Mon 07:31:00 PM 6.4615 -142.0000 360° North 458 527 41,000  Level FlightAware Transoceanic
Mon 07:32:00 PM 6.5897 -142.0000 360° North 458 527 41,000  Level FlightAware Transoceanic
Mon 07:33:00 PM 6.7179 -142.0000 360° North 458 527 41,000  Level FlightAware Transoceanic
Mon 07:34:00 PM 6.8461 -142.0000 360° North 458 527 41,000  Level FlightAware Transoceanic
Mon 07:35:00 PM 6.9744 -142.0000 360° North 458 527 41,000  Level FlightAware Transoceanic
Mon 07:36:00 PM 7.1026 -142.0000 360° North 458 527 41,000  Level FlightAware Transoceanic
Mon 07:37:00 PM 7.2308 -142.0000 360° North 458 527 41,000  Level FlightAware Transoceanic
Mon 07:38:00 PM 7.3590 -142.0000 360° North 458 527 41,000  Level FlightAware Transoceanic
Mon 07:39:00 PM 7.4872 -142.0000 360° North 458 527 41,000  Level FlightAware Transoceanic
Mon 07:40:00 PM 7.6154 -142.0000 360° North 458 527 41,000  Level FlightAware Transoceanic
Mon 07:41:00 PM 7.7436 -142.0000 360° North 458 527 41,000  Level FlightAware Transoceanic
Mon 07:42:00 PM 7.8718 -142.0000 360° North 458 527 41,000  Level FlightAware Transoceanic
Mon 07:43:00 PM 8.0000 -142.0000 360° North 458 527 41,000  Level FlightAware Transoceanic
Mon 07:44:00 PM 8.1429 -142.0000 360° North 458 527 41,000  Level FlightAware Transoceanic
Mon 07:44:29 PM 8.0000 -142.0000 360° North 511 588 41,000  Level Oakland Oceanic (ODAPS)
Mon 07:45:00 PM 8.2857 -142.0000 360° North 458 527 41,000  Level FlightAware Transoceanic
Mon 07:46:00 PM 8.4286 -142.0000 360° North 458 527 41,000  Level FlightAware Transoceanic
Mon 07:47:00 PM 8.5714 -142.0000 360° North 458 527 41,000  Level FlightAware Transoceanic
Mon 07:48:00 PM 8.7143 -142.0000 360° North 458 527 41,000  Level FlightAware Transoceanic
Mon 07:49:00 PM 8.8571 -142.0000 360° North 458 527 41,000  Level FlightAware Transoceanic
Mon 07:50:00 PM 9.0000 -142.0000 360° North 511 588 41,000  Level FlightAware Transoceanic
Mon 07:51:00 PM 9.1429 -142.0000 360° North 511 588 41,000  Level FlightAware Transoceanic
Mon 07:52:00 PM 9.2857 -142.0000 360° North 511 588 41,000  Level FlightAware Transoceanic
Mon 07:53:00 PM 9.4286 -142.0000 360° North 511 588 41,000  Level FlightAware Transoceanic
Mon 07:54:00 PM 9.5714 -142.0000 360° North 511 588 41,000  Level FlightAware Transoceanic
Mon 07:55:00 PM 9.7143 -142.0000 360° North 511 588 41,000  Level FlightAware Transoceanic
Mon 07:56:00 PM 9.8571 -142.0000 360° North 511 588 41,000  Level FlightAware Transoceanic
Mon 07:57:00 PM 10.0000 -142.0000 360° North 511 588 41,000  Level FlightAware Transoceanic
Mon 07:58:00 PM 10.1364 -142.0000 360° North 511 588 41,000 1,043 Level FlightAware Transoceanic
Mon 07:58:55 PM 10.0000 -142.0000 360° North 488 562 43,000  Climbing Oakland Oceanic (ODAPS)
Mon 07:59:00 PM 10.2727 -142.0000 360° North 511 588 41,000 -1,846 Descending FlightAware Transoceanic
Mon 08:00:00 PM 10.4091 -142.0000 360° North 511 588 41,000  Level FlightAware Transoceanic
Mon 08:01:00 PM 10.5455 -142.0000 360° North 511 588 41,000  Level FlightAware Transoceanic
Mon 08:02:00 PM 10.6818 -142.0000 360° North 511 588 41,000  Level FlightAware Transoceanic
Mon 08:03:00 PM 10.8182 -142.0000 360° North 511 588 41,000  Level FlightAware Transoceanic
Mon 08:04:00 PM 10.9545 -142.0000 360° North 511 588 41,000 1,000 Level FlightAware Transoceanic
Mon 08:05:00 PM 11.0909 -142.0000 360° North 488 562 43,000 1,000 Climbing FlightAware Transoceanic
Mon 08:06:00 PM 11.2273 -142.0000 360° North 488 562 43,000  Level FlightAware Transoceanic
Mon 08:07:00 PM 11.3636 -142.0000 360° North 488 562 43,000  Level FlightAware Transoceanic
Mon 08:08:00 PM 11.5000 -142.0000 360° North 488 562 43,000  Level FlightAware Transoceanic
Mon 08:09:00 PM 11.6364 -142.0000 360° North 488 562 43,000  Level FlightAware Transoceanic
Mon 08:10:00 PM 11.7727 -142.0000 360° North 488 562 43,000  Level FlightAware Transoceanic
Mon 08:11:00 PM 11.9091 -142.0000 360° North 488 562 43,000  Level FlightAware Transoceanic
Mon 08:12:00 PM 12.0455 -142.0000 360° North 488 562 43,000  Level FlightAware Transoceanic
Mon 08:13:00 PM 12.1818 -142.0000 360° North 488 562 43,000  Level FlightAware Transoceanic
Mon 08:14:00 PM 12.3182 -142.0000 360° North 488 562 43,000  Level FlightAware Transoceanic
Mon 08:15:00 PM 12.4545 -142.0000 360° North 488 562 43,000  Level FlightAware Transoceanic
Mon 08:16:00 PM 12.5909 -142.0000 360° North 488 562 43,000  Level FlightAware Transoceanic
Mon 08:17:00 PM 12.7273 -142.0000 360° North 488 562 43,000  Level FlightAware Transoceanic
Mon 08:18:00 PM 12.8636 -142.0000 360° North 488 562 43,000  Level FlightAware Transoceanic
Mon 08:19:00 PM 13.0000 -142.0000 26° Northeast 488 562 43,000  Level FlightAware Transoceanic
Mon 08:20:00 PM 13.1251 -141.9380 26° Northeast 488 562 43,000  Level FlightAware Transoceanic
Mon 08:21:00 PM 13.2502 -141.8759 26° Northeast 488 562 43,000  Level FlightAware Transoceanic
Mon 08:21:32 PM 13.0000 -142.0000 26° Northeast 498 573 43,000  Level Oakland Oceanic (ODAPS)
Mon 08:22:00 PM 13.3753 -141.8138 26° Northeast 488 562 43,000  Level FlightAware Transoceanic
Mon 08:23:00 PM 13.5004 -141.7516 26° Northeast 488 562 43,000  Level FlightAware Transoceanic
Mon 08:24:00 PM 13.6254 -141.6893 26° Northeast 488 562 43,000  Level FlightAware Transoceanic
Mon 08:25:00 PM 13.7505 -141.6270 26° Northeast 488 562 43,000  Level FlightAware Transoceanic
Mon 08:26:00 PM 13.8755 -141.5646 26° Northeast 488 562 43,000  Level FlightAware Transoceanic
Mon 08:27:00 PM 13.8755 -141.5646 26° Northeast 498 573 43,000  Level FlightAware Transoceanic
Mon 08:28:00 PM 14.0005 -141.5022 26° Northeast 498 573 43,000  Level FlightAware Transoceanic
Mon 08:29:00 PM 14.1255 -141.4397 26° Northeast 498 573 43,000  Level FlightAware Transoceanic
Mon 08:30:00 PM 14.2505 -141.3770 26° Northeast 498 573 43,000  Level FlightAware Transoceanic
Mon 08:31:00 PM 14.3754 -141.3144 26° Northeast 498 573 43,000  Level FlightAware Transoceanic
Mon 08:32:00 PM 14.5004 -141.2516 26° Northeast 498 573 43,000  Level FlightAware Transoceanic
Mon 08:33:00 PM 14.6253 -141.1888 26° Northeast 498 573 43,000  Level FlightAware Transoceanic
Mon 08:34:00 PM 14.7502 -141.1260 26° Northeast 498 573 43,000  Level FlightAware Transoceanic
Mon 08:35:00 PM 14.8751 -141.0630 26° Northeast 498 573 43,000  Level FlightAware Transoceanic
Mon 08:36:00 PM 15.0000 -141.0000 11° North 498 573 43,000  Level FlightAware Transoceanic
Mon 08:37:00 PM 15.1352 -140.9737 11° North 498 573 43,000  Level FlightAware Transoceanic
Mon 08:38:00 PM 15.2704 -140.9473 11° North 498 573 43,000  Level FlightAware Transoceanic
Mon 08:39:00 PM 15.4056 -140.9209 11° North 498 573 43,000  Level FlightAware Transoceanic
Mon 08:39:55 PM 15.0000 -141.0000 11° North 455 524 43,000  Level Oakland Oceanic (ODAPS)
Mon 08:40:00 PM 15.5408 -140.8944 11° North 498 573 43,000  Level FlightAware Transoceanic
Mon 08:41:00 PM 15.6760 -140.8679 11° North 498 573 43,000  Level FlightAware Transoceanic
Mon 08:42:00 PM 15.8111 -140.8414 11° North 498 573 43,000  Level FlightAware Transoceanic
Mon 08:43:00 PM 15.9463 -140.8149 11° North 498 573 43,000  Level FlightAware Transoceanic
Mon 08:44:00 PM 16.0815 -140.7883 11° North 498 573 43,000  Level FlightAware Transoceanic
Mon 08:45:00 PM 16.2167 -140.7617 11° North 498 573 43,000  Level FlightAware Transoceanic
Mon 08:46:00 PM 16.2505 -140.7550 11° North 455 524 43,000  Level FlightAware Transoceanic
Mon 08:47:00 PM 16.3755 -140.7303 11° North 455 524 43,000  Level FlightAware Transoceanic
Mon 08:48:00 PM 16.5005 -140.7056 11° North 455 524 43,000  Level FlightAware Transoceanic
Mon 08:49:00 PM 16.6255 -140.6809 11° North 455 524 43,000  Level FlightAware Transoceanic
Mon 08:50:00 PM 16.7506 -140.6561 11° North 455 524 43,000  Level FlightAware Transoceanic
Mon 08:51:00 PM 16.8756 -140.6314 11° North 455 524 43,000  Level FlightAware Transoceanic
Mon 08:52:00 PM 17.0006 -140.6065 11° North 455 524 43,000  Level FlightAware Transoceanic
Mon 08:53:00 PM 17.1256 -140.5817 11° North 455 524 43,000  Level FlightAware Transoceanic
Mon 08:54:00 PM 17.2506 -140.5568 11° North 455 524 43,000  Level FlightAware Transoceanic
Mon 08:55:00 PM 17.3756 -140.5318 11° North 455 524 43,000  Level FlightAware Transoceanic
Mon 08:56:00 PM 17.5006 -140.5069 11° North 455 524 43,000  Level FlightAware Transoceanic
Mon 08:57:00 PM 17.6256 -140.4819 11° North 455 524 43,000  Level FlightAware Transoceanic
Mon 08:58:00 PM 17.7506 -140.4569 11° North 455 524 43,000  Level FlightAware Transoceanic
Mon 08:59:00 PM 17.8756 -140.4318 11° North 455 524 43,000  Level FlightAware Transoceanic
Mon 09:00:00 PM 18.0006 -140.4067 11° North 455 524 43,000  Level FlightAware Transoceanic
Mon 09:01:00 PM 18.1256 -140.3815 11° North 455 524 43,000  Level FlightAware Transoceanic
Mon 09:02:00 PM 18.2506 -140.3564 11° North 455 524 43,000  Level FlightAware Transoceanic
Mon 09:03:00 PM 18.3756 -140.3312 11° North 455 524 43,000  Level FlightAware Transoceanic
Mon 09:04:00 PM 18.5005 -140.3059 11° North 455 524 43,000  Level FlightAware Transoceanic
Mon 09:05:00 PM 18.6255 -140.2806 11° North 455 524 43,000  Level FlightAware Transoceanic
Mon 09:06:00 PM 18.7505 -140.2553 11° North 455 524 43,000  Level FlightAware Transoceanic
Mon 09:07:00 PM 18.8755 -140.2300 11° North 455 524 43,000  Level FlightAware Transoceanic
Mon 09:08:00 PM 19.0004 -140.2046 11° North 455 524 43,000  Level FlightAware Transoceanic
Mon 09:09:00 PM 19.1254 -140.1791 11° North 455 524 43,000  Level FlightAware Transoceanic
Mon 09:10:00 PM 19.2503 -140.1537 11° North 455 524 43,000  Level FlightAware Transoceanic
Mon 09:11:00 PM 19.3753 -140.1281 11° North 455 524 43,000  Level FlightAware Transoceanic
Mon 09:12:00 PM 19.5002 -140.1026 11° North 455 524 43,000  Level FlightAware Transoceanic
Mon 09:13:00 PM 19.6252 -140.0770 11° North 455 524 43,000  Level FlightAware Transoceanic
Mon 09:14:00 PM 19.7501 -140.0514 11° North 455 524 43,000  Level FlightAware Transoceanic
Mon 09:15:00 PM 19.8751 -140.0257 11° North 455 524 43,000  Level FlightAware Transoceanic
Mon 09:16:00 PM 20.0000 -140.0000 360° North 455 524 43,000  Level FlightAware Transoceanic
Mon 09:17:00 PM 20.1351 -140.0000 360° North 455 524 43,000  Level FlightAware Transoceanic
Mon 09:18:00 PM 20.2703 -140.0000 360° North 455 524 43,000  Level FlightAware Transoceanic
Mon 09:18:05 PM 20.0000 -140.0000 360° North 471 542 43,000  Level Oakland Oceanic (ODAPS)
Mon 09:19:00 PM 20.4054 -140.0000 360° North 455 524 43,000  Level FlightAware Transoceanic
Mon 09:20:00 PM 20.5405 -140.0000 360° North 455 524 43,000  Level FlightAware Transoceanic
Mon 09:21:00 PM 20.6757 -140.0000 360° North 455 524 43,000  Level FlightAware Transoceanic
Mon 09:22:00 PM 20.8108 -140.0000 360° North 455 524 43,000  Level FlightAware Transoceanic
Mon 09:23:00 PM 20.9459 -140.0000 360° North 455 524 43,000  Level FlightAware Transoceanic
Mon 09:24:00 PM 21.1842 -140.0000 360° North 471 542 43,000  Level FlightAware Transoceanic
Mon 09:25:00 PM 21.3158 -140.0000 360° North 471 542 43,000  Level FlightAware Transoceanic
Mon 09:26:00 PM 21.4474 -140.0000 360° North 471 542 43,000  Level FlightAware Transoceanic
Mon 09:27:00 PM 21.5790 -140.0000 360° North 471 542 43,000  Level FlightAware Transoceanic
Mon 09:28:00 PM 21.7105 -140.0000 360° North 471 542 43,000  Level FlightAware Transoceanic
Mon 09:29:00 PM 21.8421 -140.0000 360° North 471 542 43,000  Level FlightAware Transoceanic
Mon 09:30:00 PM 21.9737 -140.0000 360° North 471 542 43,000  Level FlightAware Transoceanic
Mon 09:31:00 PM 22.1053 -140.0000 360° North 471 542 43,000  Level FlightAware Transoceanic
Mon 09:32:00 PM 22.2368 -140.0000 360° North 471 542 43,000  Level FlightAware Transoceanic
Mon 09:33:00 PM 22.3684 -140.0000 360° North 471 542 43,000  Level FlightAware Transoceanic
Mon 09:34:00 PM 22.5000 -140.0000 360° North 471 542 43,000  Level FlightAware Transoceanic
Mon 09:35:00 PM 22.6316 -140.0000 360° North 471 542 43,000  Level FlightAware Transoceanic
Mon 09:36:00 PM 22.7632 -140.0000 360° North 471 542 43,000  Level FlightAware Transoceanic
Mon 09:37:00 PM 22.8947 -140.0000 360° North 471 542 43,000  Level FlightAware Transoceanic
Mon 09:38:00 PM 23.0263 -140.0000 360° North 471 542 43,000  Level FlightAware Transoceanic
Mon 09:39:00 PM 23.1579 -140.0000 360° North 471 542 43,000  Level FlightAware Transoceanic
Mon 09:40:00 PM 23.2895 -140.0000 360° North 471 542 43,000  Level FlightAware Transoceanic
Mon 09:41:00 PM 23.4210 -140.0000 360° North 471 542 43,000  Level FlightAware Transoceanic
Mon 09:42:00 PM 23.5526 -140.0000 360° North 471 542 43,000  Level FlightAware Transoceanic
Mon 09:43:00 PM 23.6842 -140.0000 360° North 471 542 43,000  Level FlightAware Transoceanic
Mon 09:44:00 PM 23.8158 -140.0000 360° North 471 542 43,000  Level FlightAware Transoceanic
Mon 09:45:00 PM 23.9474 -140.0000 360° North 471 542 43,000  Level FlightAware Transoceanic
Mon 09:46:00 PM 24.0790 -140.0000 360° North 471 542 43,000  Level FlightAware Transoceanic
Mon 09:47:00 PM 24.2105 -140.0000 360° North 471 542 43,000  Level FlightAware Transoceanic
Mon 09:48:00 PM 24.3421 -140.0000 360° North 471 542 43,000  Level FlightAware Transoceanic
Mon 09:49:00 PM 24.4737 -140.0000 360° North 471 542 43,000  Level FlightAware Transoceanic
Mon 09:50:00 PM 24.6053 -140.0000 360° North 471 542 43,000  Level FlightAware Transoceanic
Mon 09:51:00 PM 24.7368 -140.0000 360° North 471 542 43,000  Level FlightAware Transoceanic
Mon 09:52:00 PM 24.8684 -140.0000 360° North 471 542 43,000  Level FlightAware Transoceanic
Mon 09:53:00 PM 25.0000 -140.0000 360° North 471 542 43,000  Level FlightAware Transoceanic
Mon 09:54:00 PM 25.1304 -140.0000 360° North 471 542 43,000  Level FlightAware Transoceanic
Mon 09:54:19 PM 25.0000 -140.0000 360° North 467 537 43,000  Level Oakland Oceanic (ODAPS)
Mon 09:55:00 PM 25.2609 -140.0000 360° North 471 542 43,000  Level FlightAware Transoceanic
Mon 09:56:00 PM 25.3913 -140.0000 360° North 471 542 43,000  Level FlightAware Transoceanic
Mon 09:57:00 PM 25.5217 -140.0000 360° North 471 542 43,000  Level FlightAware Transoceanic
Mon 09:58:00 PM 25.6522 -140.0000 360° North 471 542 43,000  Level FlightAware Transoceanic
Mon 09:59:00 PM 25.7826 -140.0000 360° North 471 542 43,000  Level FlightAware Transoceanic
Mon 10:00:00 PM 25.9130 -140.0000 360° North 467 537 43,000  Level FlightAware Transoceanic
Mon 10:01:00 PM 26.0435 -140.0000 360° North 467 537 43,000  Level FlightAware Transoceanic
Mon 10:02:00 PM 26.1739 -140.0000 360° North 467 537 43,000  Level FlightAware Transoceanic
Mon 10:03:00 PM 26.3043 -140.0000 360° North 467 537 43,000  Level FlightAware Transoceanic
Mon 10:04:00 PM 26.4348 -140.0000 360° North 467 537 43,000  Level FlightAware Transoceanic
Mon 10:05:00 PM 26.5652 -140.0000 360° North 467 537 43,000  Level FlightAware Transoceanic
Mon 10:06:00 PM 26.6957 -140.0000 360° North 467 537 43,000  Level FlightAware Transoceanic
Mon 10:07:00 PM 26.8261 -140.0000 360° North 467 537 43,000  Level FlightAware Transoceanic
Mon 10:08:00 PM 26.9565 -140.0000 360° North 467 537 43,000  Level FlightAware Transoceanic
Mon 10:09:00 PM 27.0870 -140.0000 360° North 467 537 43,000  Level FlightAware Transoceanic
Mon 10:10:00 PM 27.2174 -140.0000 360° North 467 537 43,000  Level FlightAware Transoceanic
Mon 10:11:00 PM 27.3478 -140.0000 360° North 467 537 43,000  Level FlightAware Transoceanic
Mon 10:12:00 PM 27.4783 -140.0000 360° North 467 537 43,000  Level FlightAware Transoceanic
Mon 10:13:00 PM 27.6087 -140.0000 360° North 467 537 43,000  Level FlightAware Transoceanic
Mon 10:14:00 PM 27.7391 -140.0000 360° North 467 537 43,000  Level FlightAware Transoceanic
Mon 10:15:00 PM 27.8696 -140.0000 360° North 467 537 43,000  Level FlightAware Transoceanic
Mon 10:16:00 PM 28.0000 -140.0000 360° North 467 537 43,000  Level FlightAware Transoceanic
Mon 10:17:00 PM 28.1250 -140.0000 360° North 467 537 43,000  Level FlightAware Transoceanic
Mon 10:18:00 PM 28.2500 -140.0000 360° North 467 537 43,000  Level FlightAware Transoceanic
Mon 10:19:00 PM 28.3750 -140.0000 360° North 467 537 43,000 1,043 Level FlightAware Transoceanic
Mon 10:19:55 PM 28.0000 -140.0000 360° North 422 486 45,000  Climbing Oakland Oceanic (ODAPS)
Mon 10:20:00 PM 28.5000 -140.0000 360° North 467 537 43,000 -1,846 Descending FlightAware Transoceanic
Mon 10:21:00 PM 28.6250 -140.0000 360° North 467 537 43,000  Level FlightAware Transoceanic
Mon 10:22:00 PM 28.7500 -140.0000 360° North 467 537 43,000  Level FlightAware Transoceanic
Mon 10:23:00 PM 28.8750 -140.0000 360° North 467 537 43,000  Level FlightAware Transoceanic
Mon 10:24:00 PM 29.0000 -140.0000 360° North 467 537 43,000  Level FlightAware Transoceanic
Mon 10:25:00 PM 29.1250 -140.0000 360° North 467 537 43,000 1,000 Level FlightAware Transoceanic
Mon 10:26:00 PM 29.0588 -140.0000 360° North 422 486 45,000 1,000 Climbing FlightAware Transoceanic
Mon 10:27:00 PM 29.1765 -140.0000 360° North 422 486 45,000  Level FlightAware Transoceanic
Mon 10:28:00 PM 29.2941 -140.0000 360° North 422 486 45,000  Level FlightAware Transoceanic
Mon 10:29:00 PM 29.4118 -140.0000 360° North 422 486 45,000  Level FlightAware Transoceanic
Mon 10:30:00 PM 29.5294 -140.0000 360° North 422 486 45,000  Level FlightAware Transoceanic
Mon 10:31:00 PM 29.6471 -140.0000 360° North 422 486 45,000  Level FlightAware Transoceanic
Mon 10:32:00 PM 29.7647 -140.0000 360° North 422 486 45,000  Level FlightAware Transoceanic
Mon 10:33:00 PM 29.8824 -140.0000 360° North 422 486 45,000  Level FlightAware Transoceanic
Mon 10:34:00 PM 30.0000 -140.0000 360° North 422 486 45,000  Level FlightAware Transoceanic
Mon 10:35:00 PM 30.1250 -140.0000 360° North 422 486 45,000  Level FlightAware Transoceanic
Mon 10:36:00 PM 30.2500 -140.0000 360° North 422 486 45,000  Level FlightAware Transoceanic
Mon 10:37:00 PM 30.3750 -140.0000 360° North 422 486 45,000  Level FlightAware Transoceanic
Mon 10:38:00 PM 30.5000 -140.0000 360° North 422 486 45,000  Level FlightAware Transoceanic
Mon 10:39:00 PM 30.6250 -140.0000 360° North 422 486 45,000  Level FlightAware Transoceanic
Mon 10:40:00 PM 30.7500 -140.0000 360° North 422 486 45,000  Level FlightAware Transoceanic
Mon 10:40:14 PM 30.0000 -140.0000 360° North 430 495 45,000  Level Oakland Oceanic (ODAPS)
Mon 10:41:00 PM 30.8750 -140.0000 360° North 422 486 45,000  Level FlightAware Transoceanic
Mon 10:42:00 PM 31.0000 -140.0000 360° North 422 486 45,000  Level FlightAware Transoceanic
Mon 10:43:00 PM 31.1250 -140.0000 360° North 422 486 45,000  Level FlightAware Transoceanic
Mon 10:44:00 PM 31.2500 -140.0000 360° North 422 486 45,000  Level FlightAware Transoceanic
Mon 10:45:00 PM 31.3750 -140.0000 360° North 422 486 45,000  Level FlightAware Transoceanic
Mon 10:46:00 PM 31.4400 -140.0000 360° North 430 495 45,000  Level FlightAware Transoceanic
Mon 10:47:00 PM 31.5600 -140.0000 360° North 430 495 45,000  Level FlightAware Transoceanic
Mon 10:48:00 PM 31.6800 -140.0000 360° North 430 495 45,000  Level FlightAware Transoceanic
Mon 10:49:00 PM 31.8000 -140.0000 360° North 430 495 45,000  Level FlightAware Transoceanic
Mon 10:50:00 PM 31.9200 -140.0000 360° North 430 495 45,000  Level FlightAware Transoceanic
Mon 10:51:00 PM 32.0400 -140.0000 360° North 430 495 45,000  Level FlightAware Transoceanic
Mon 10:52:00 PM 32.1600 -140.0000 360° North 430 495 45,000  Level FlightAware Transoceanic
Mon 10:53:00 PM 32.2800 -140.0000 360° North 430 495 45,000  Level FlightAware Transoceanic
Mon 10:54:00 PM 32.4000 -140.0000 360° North 430 495 45,000  Level FlightAware Transoceanic
Mon 10:55:00 PM 32.5200 -140.0000 360° North 430 495 45,000  Level FlightAware Transoceanic
Mon 10:56:00 PM 32.6400 -140.0000 360° North 430 495 45,000  Level FlightAware Transoceanic
Mon 10:57:00 PM 32.7600 -140.0000 360° North 430 495 45,000  Level FlightAware Transoceanic
Mon 10:58:00 PM 32.8800 -140.0000 360° North 430 495 45,000  Level FlightAware Transoceanic
Mon 10:59:00 PM 33.0000 -140.0000 360° North 430 495 45,000  Level FlightAware Transoceanic
Mon 11:00:00 PM 33.1250 -140.0000 360° North 430 495 45,000  Level FlightAware Transoceanic
Mon 11:01:00 PM 33.2500 -140.0000 360° North 430 495 45,000  Level FlightAware Transoceanic
Mon 11:02:00 PM 33.3750 -140.0000 360° North 430 495 45,000  Level FlightAware Transoceanic
Mon 11:03:00 PM 33.5000 -140.0000 360° North 430 495 45,000  Level FlightAware Transoceanic
Mon 11:04:00 PM 33.6250 -140.0000 360° North 430 495 45,000  Level FlightAware Transoceanic
Mon 11:04:32 PM 33.0000 -140.0000 360° North 479 551 45,000  Level Oakland Oceanic (ODAPS)
Mon 11:05:00 PM 33.7500 -140.0000 360° North 430 495 45,000  Level FlightAware Transoceanic
Mon 11:06:00 PM 33.8750 -140.0000 360° North 430 495 45,000  Level FlightAware Transoceanic
Mon 11:07:00 PM 34.0000 -140.0000 360° North 430 495 45,000  Level FlightAware Transoceanic
Mon 11:08:00 PM 34.1250 -140.0000 360° North 430 495 45,000  Level FlightAware Transoceanic
Mon 11:09:00 PM 34.2500 -140.0000 360° North 430 495 45,000  Level FlightAware Transoceanic
Mon 11:10:00 PM 34.4667 -140.0000 360° North 479 551 45,000  Level FlightAware Transoceanic
Mon 11:11:00 PM 34.6000 -140.0000 360° North 479 551 45,000  Level FlightAware Transoceanic
Mon 11:12:00 PM 34.7333 -140.0000 360° North 479 551 45,000  Level FlightAware Transoceanic
Mon 11:13:00 PM 34.8667 -140.0000 360° North 479 551 45,000  Level FlightAware Transoceanic
Mon 11:14:00 PM 35.0000 -140.0000 360° North 479 551 45,000  Level FlightAware Transoceanic
Mon 11:15:00 PM 35.1250 -140.0000 360° North 479 551 45,000  Level FlightAware Transoceanic
Mon 11:16:00 PM 35.2500 -140.0000 360° North 479 551 45,000  Level FlightAware Transoceanic
Mon 11:17:00 PM 35.3750 -140.0000 360° North 479 551 45,000  Level FlightAware Transoceanic
Mon 11:18:00 PM 35.5000 -140.0000 360° North 479 551 45,000  Level FlightAware Transoceanic
Mon 11:19:00 PM 35.6250 -140.0000 360° North 479 551 45,000  Level FlightAware Transoceanic
Mon 11:20:00 PM 35.7500 -140.0000 360° North 479 551 45,000  Level FlightAware Transoceanic
Mon 11:21:00 PM 35.8750 -140.0000 360° North 479 551 45,000  Level FlightAware Transoceanic
Mon 11:22:00 PM 36.0000 -140.0000 360° North 479 551 45,000  Level FlightAware Transoceanic
Mon 11:23:00 PM 36.1250 -140.0000 360° North 479 551 45,000  Level FlightAware Transoceanic
Mon 11:23:54 PM 35.0000 -140.0000 360° North 422 486 45,000  Level Oakland Oceanic (ODAPS)
Mon 11:24:00 PM 36.2500 -140.0000 360° North 479 551 45,000  Level FlightAware Transoceanic
Mon 11:25:00 PM 36.3750 -140.0000 360° North 479 551 45,000  Level FlightAware Transoceanic
Mon 11:26:00 PM 36.5000 -140.0000 360° North 479 551 45,000  Level FlightAware Transoceanic
Mon 11:27:00 PM 36.6250 -140.0000 360° North 479 551 45,000  Level FlightAware Transoceanic
Mon 11:28:00 PM 36.7500 -140.0000 360° North 479 551 45,000  Level FlightAware Transoceanic
Mon 11:29:00 PM 36.8750 -140.0000 360° North 479 551 45,000  Level FlightAware Transoceanic
Mon 11:30:00 PM 36.8824 -140.0000 360° North 422 486 45,000  Level FlightAware Transoceanic
Mon 11:31:00 PM 37.0000 -140.0000 27° Northeast 422 486 45,000  Level FlightAware Transoceanic
Mon 11:32:00 PM 37.1126 -139.9274 27° Northeast 422 486 45,000  Level FlightAware Transoceanic
Mon 11:33:00 PM 37.2251 -139.8546 27° Northeast 422 486 45,000  Level FlightAware Transoceanic
Mon 11:34:00 PM 37.3376 -139.7816 27° Northeast 422 486 45,000  Level FlightAware Transoceanic
Mon 11:35:00 PM 37.4500 -139.7083 27° Northeast 422 486 45,000  Level FlightAware Transoceanic
Mon 11:36:00 PM 37.5624 -139.6348 27° Northeast 422 486 45,000  Level FlightAware Transoceanic
Mon 11:36:51 PM 37.0000 -140.0000 27° Northeast 454 522 45,000  Level Oakland Oceanic (ODAPS)
Mon 11:37:00 PM 37.6747 -139.5611 27° Northeast 422 486 45,000  Level FlightAware Transoceanic
Mon 11:38:00 PM 37.7870 -139.4872 28° Northeast 422 486 45,000  Level FlightAware Transoceanic
Mon 11:39:00 PM 37.8992 -139.4131 28° Northeast 422 486 45,000  Level FlightAware Transoceanic
Mon 11:40:00 PM 38.0114 -139.3387 28° Northeast 422 486 45,000  Level FlightAware Transoceanic
Mon 11:41:00 PM 38.1236 -139.2641 28° Northeast 422 486 45,000  Level FlightAware Transoceanic
Mon 11:42:00 PM 38.2357 -139.1893 28° Northeast 422 486 45,000  Level FlightAware Transoceanic
Mon 11:43:00 PM 38.3478 -139.1142 28° Northeast 454 522 45,000  Level FlightAware Transoceanic
Mon 11:44:00 PM 38.4598 -139.0389 28° Northeast 454 522 45,000  Level FlightAware Transoceanic
Mon 11:45:00 PM 38.5717 -138.9634 28° Northeast 454 522 45,000  Level FlightAware Transoceanic
Mon 11:46:00 PM 38.6836 -138.8876 28° Northeast 454 522 45,000  Level FlightAware Transoceanic
Mon 11:47:00 PM 38.7955 -138.8116 28° Northeast 454 522 45,000  Level FlightAware Transoceanic
Mon 11:48:00 PM 38.9073 -138.7354 28° Northeast 454 522 45,000  Level FlightAware Transoceanic
Mon 11:49:00 PM 39.0191 -138.6589 28° Northeast 454 522 45,000  Level FlightAware Transoceanic
Mon 11:50:00 PM 39.1308 -138.5822 28° Northeast 454 522 45,000  Level FlightAware Transoceanic
Mon 11:51:00 PM 39.2425 -138.5052 28° Northeast 454 522 45,000  Level FlightAware Transoceanic
Mon 11:52:00 PM 39.3541 -138.4280 28° Northeast 454 522 45,000  Level FlightAware Transoceanic
Mon 11:53:00 PM 39.4656 -138.3505 28° Northeast 454 522 45,000  Level FlightAware Transoceanic
Mon 11:54:00 PM 39.5771 -138.2728 28° Northeast 454 522 45,000  Level FlightAware Transoceanic
Mon 11:55:00 PM 39.6886 -138.1949 28° Northeast 454 522 45,000  Level FlightAware Transoceanic
Mon 11:56:00 PM 39.8000 -138.1167 52° Northeast 454 522 45,000  Level FlightAware Transoceanic
Mon 11:57:00 PM 39.8846 -137.9758 52° Northeast 454 522 45,000  Level FlightAware Transoceanic
Mon 11:57:17 PM 39.8000 -138.1167 52° Northeast 487 560 45,000  Level Oakland Oceanic (ODAPS)
Mon 11:58:00 PM 39.9691 -137.8346 52° Northeast 454 522 45,000  Level FlightAware Transoceanic
Mon 11:59:00 PM 40.0533 -137.6930 52° Northeast 454 522 45,000  Level FlightAware Transoceanic
Tue 12:00:00 AM 40.1374 -137.5511 52° Northeast 454 522 45,000  Level FlightAware Transoceanic
Tue 12:01:00 AM 40.2213 -137.4088 52° Northeast 454 522 45,000  Level FlightAware Transoceanic
Tue 12:02:00 AM 40.3051 -137.2662 52° Northeast 454 522 45,000  Level FlightAware Transoceanic
Tue 12:03:00 AM 40.3780 -137.1414 53° Northeast 487 560 45,000  Level FlightAware Transoceanic
Tue 12:04:00 AM 40.4599 -137.0007 53° Northeast 487 560 45,000  Level FlightAware Transoceanic
Tue 12:05:00 AM 40.5417 -136.8597 53° Northeast 487 560 45,000  Level FlightAware Transoceanic
Tue 12:06:00 AM 40.6232 -136.7183 53° Northeast 487 560 45,000  Level FlightAware Transoceanic
Tue 12:07:00 AM 40.7046 -136.5766 53° Northeast 487 560 45,000  Level FlightAware Transoceanic
Tue 12:08:00 AM 40.7858 -136.4345 53° Northeast 487 560 45,000  Level FlightAware Transoceanic
Tue 12:09:00 AM 40.8669 -136.2921 53° Northeast 487 560 45,000  Level FlightAware Transoceanic
Tue 12:10:00 AM 40.9477 -136.1494 53° Northeast 487 560 45,000  Level FlightAware Transoceanic
Tue 12:11:00 AM 41.0284 -136.0063 53° Northeast 487 560 45,000  Level FlightAware Transoceanic
Tue 12:12:00 AM 41.1089 -135.8628 53° Northeast 487 560 45,000  Level FlightAware Transoceanic
Tue 12:13:00 AM 41.1893 -135.7190 53° Northeast 487 560 45,000  Level FlightAware Transoceanic
Tue 12:14:00 AM 41.2694 -135.5748 54° Northeast 487 560 45,000  Level FlightAware Transoceanic
Tue 12:15:00 AM 41.3494 -135.4303 54° Northeast 487 560 45,000  Level FlightAware Transoceanic
Tue 12:16:00 AM 41.4292 -135.2854 54° Northeast 487 560 45,000  Level FlightAware Transoceanic
Tue 12:17:00 AM 41.5088 -135.1402 54° Northeast 487 560 45,000  Level FlightAware Transoceanic
Tue 12:18:00 AM 41.5882 -134.9946 54° Northeast 487 560 45,000  Level FlightAware Transoceanic
Tue 12:19:00 AM 41.6675 -134.8487 54° Northeast 487 560 45,000  Level FlightAware Transoceanic
Tue 12:20:00 AM 41.7465 -134.7024 54° Northeast 487 560 45,000  Level FlightAware Transoceanic
Tue 12:21:00 AM 41.8254 -134.5557 54° Northeast 487 560 45,000  Level FlightAware Transoceanic
Tue 12:22:00 AM 41.9041 -134.4087 54° Northeast 487 560 45,000  Level FlightAware Transoceanic
Tue 12:23:00 AM 41.9826 -134.2613 54° Northeast 487 560 45,000  Level FlightAware Transoceanic
Tue 12:24:00 AM 42.0609 -134.1135 55° Northeast 487 560 45,000  Level FlightAware Transoceanic
Tue 12:25:00 AM 42.1390 -133.9654 55° Northeast 487 560 45,000  Level FlightAware Transoceanic
Tue 12:26:00 AM 42.2169 -133.8169 55° Northeast 487 560 45,000  Level FlightAware Transoceanic
Tue 12:27:00 AM 42.2946 -133.6681 55° Northeast 487 560 45,000  Level FlightAware Transoceanic
Tue 12:28:00 AM 42.3722 -133.5189 55° Northeast 487 560 45,000  Level FlightAware Transoceanic
Tue 12:29:00 AM 42.4495 -133.3693 55° Northeast 487 560 45,000  Level FlightAware Transoceanic
Tue 12:30:00 AM 42.5267 -133.2193 55° Northeast 487 560 45,000  Level FlightAware Transoceanic
Tue 12:31:00 AM 42.6036 -133.0690 55° Northeast 487 560 45,000  Level FlightAware Transoceanic
Tue 12:32:00 AM 42.6804 -132.9183 55° Northeast 487 560 45,000  Level FlightAware Transoceanic
Tue 12:33:00 AM 42.7570 -132.7672 55° Northeast 487 560 45,000  Level FlightAware Transoceanic
Tue 12:34:00 AM 42.8333 -132.6158 56° Northeast 487 560 45,000  Level FlightAware Transoceanic
Tue 12:35:00 AM 42.9095 -132.4640 56° Northeast 487 560 45,000  Level FlightAware Transoceanic
Tue 12:36:00 AM 42.9854 -132.3118 56° Northeast 487 560 45,000  Level FlightAware Transoceanic
Tue 12:37:00 AM 43.0612 -132.1592 56° Northeast 487 560 45,000  Level FlightAware Transoceanic
Tue 12:38:00 AM 43.1367 -132.0063 56° Northeast 487 560 45,000  Level FlightAware Transoceanic
Tue 12:39:00 AM 43.2121 -131.8530 56° Northeast 487 560 45,000  Level FlightAware Transoceanic
Tue 12:40:00 AM 43.2873 -131.6993 56° Northeast 487 560 45,000  Level FlightAware Transoceanic
Tue 12:41:00 AM 43.3622 -131.5452 56° Northeast 487 560 45,000  Level FlightAware Transoceanic
Tue 12:42:00 AM 43.4369 -131.3907 56° Northeast 487 560 45,000  Level FlightAware Transoceanic
Tue 12:43:00 AM 43.5114 -131.2359 57° Northeast 487 560 45,000  Level FlightAware Transoceanic
Tue 12:44:00 AM 43.5858 -131.0807 57° Northeast 487 560 45,000  Level FlightAware Transoceanic
Tue 12:45:00 AM 43.6599 -130.9251 57° Northeast 487 560 45,000  Level FlightAware Transoceanic
Tue 12:46:00 AM 43.7337 -130.7691 57° Northeast 487 560 45,000  Level FlightAware Transoceanic
Tue 12:47:00 AM 43.8074 -130.6127 57° Northeast 487 560 45,000  Level FlightAware Transoceanic
Tue 12:48:00 AM 43.8809 -130.4559 57° Northeast 487 560 45,000  Level FlightAware Transoceanic
Tue 12:49:00 AM 43.9542 -130.2988 57° Northeast 487 560 45,000  Level FlightAware Transoceanic
Tue 12:50:00 AM 44.0272 -130.1413 57° Northeast 487 560 45,000  Level FlightAware Transoceanic
Tue 12:51:00 AM 44.1000 -129.9833 58° Northeast 487 560 45,000  Level FlightAware Transoceanic
Tue 12:52:00 AM 44.1760 -129.8153 58° Northeast 487 560 45,000  Level FlightAware Transoceanic
Tue 12:53:00 AM 44.2517 -129.6469 58° Northeast 487 560 45,000  Level FlightAware Transoceanic
Tue 12:54:00 AM 44.3272 -129.4780 58° Northeast 487 560 45,000  Level FlightAware Transoceanic
Tue 12:55:00 AM 44.4024 -129.3087 58° Northeast 487 560 45,000  Level FlightAware Transoceanic
Tue 12:56:00 AM 44.4774 -129.1390 58° Northeast 487 560 45,000  Level FlightAware Transoceanic
Tue 12:57:00 AM 44.5521 -128.9689 58° Northeast 487 560 45,000  Level FlightAware Transoceanic
Tue 12:58:00 AM 44.6266 -128.7982 59° Northeast 487 560 45,000  Level FlightAware Transoceanic
Tue 12:58:01 AM 44.1000 -129.9833 58° Northeast 515 593 45,000  Level Oakland Oceanic (ODAPS)
Tue 12:59:00 AM 44.7008 -128.6272 59° Northeast 487 560 45,000  Level FlightAware Transoceanic
Tue 01:00:00 AM 44.7748 -128.4557 59° Northeast 487 560 45,000  Level FlightAware Transoceanic
Tue 01:01:00 AM 44.8485 -128.2838 59° Northeast 487 560 45,000  Level FlightAware Transoceanic
Tue 01:02:00 AM 44.9219 -128.1115 59° Northeast 487 560 45,000  Level FlightAware Transoceanic
Tue 01:03:00 AM 44.9951 -127.9387 59° Northeast 487 560 45,000  Level FlightAware Transoceanic
Tue 01:03:46 AM 45.1000 -127.7158 50° Northeast 520 598 45,000  Level Seattle Center
Tue 01:04:00 AM 45.1407 -127.5917 59° Northeast 515 593 45,000  Level FlightAware Transoceanic
Tue 01:04:47 AM 45.1731 -127.5419 59° Northeast 520 598 45,000  Level Seattle Center
Tue 01:05:00 AM 45.2131 -127.4176 60° Northeast 515 593 45,000  Level FlightAware Transoceanic
Tue 01:05:47 AM 45.2408 -127.3678 61° Northeast 508 585 45,000  Level Seattle Center
Tue 01:06:00 AM 45.2852 -127.2430 60° Northeast 515 593 45,000  Level FlightAware Transoceanic
Tue 01:06:48 AM 45.3119 -127.1928 60° Northeast 513 590 45,000  Level Seattle Center
Tue 01:07:00 AM 45.3571 -127.0680 60° Northeast 515 593 45,000  Level FlightAware Transoceanic
Tue 01:07:49 AM 45.3897 -127.0161 58° Northeast 522 601 45,000  Level Seattle Center
Tue 01:08:00 AM 45.4287 -126.8926 60° Northeast 515 593 45,000  Level FlightAware Transoceanic
Tue 01:08:49 AM 45.4606 -126.8414 60° Northeast 519 597 45,000  Level Seattle Center
Tue 01:09:00 AM 45.5000 -126.7167 50° Northeast 515 593 45,000  Level FlightAware Transoceanic
Tue 01:09:50 AM 45.5375 -126.6711 57° Northeast 515 593 45,000  Level Seattle Center
Tue 01:10:51 AM 45.6239 -126.5089 53° Northeast 511 588 45,000  Level Seattle Center
Tue 01:11:51 AM 45.6889 -126.3331 62° Northeast 512 589 45,000  Level Seattle Center
Tue 01:12:52 AM 45.7581 -126.1581 60° Northeast 509 586 45,000 -246 Level Seattle Center
Tue 01:13:53 AM 45.8264 -125.9869 60° Northeast 497 572 44,500 -843 Descending Seattle Center
Tue 01:14:53 AM 45.8936 -125.8125 61° Northeast 498 573 43,300 -1,587 Descending Seattle Center
Tue 01:15:54 AM 45.9642 -125.6333 60° Northeast 511 588 41,300 -1,918 Descending Seattle Center
Tue 01:16:55 AM 46.0319 -125.4553 61° Northeast 510 587 39,400 -1,934 Descending Seattle Center
Tue 01:17:55 AM 46.1006 -125.2758 61° Northeast 511 588 37,400 -1,983 Descending Seattle Center
Tue 01:18:56 AM 46.1700 -125.0936 61° Northeast 516 594 35,400 -1,983 Descending Seattle Center
Tue 01:19:56 AM 46.2417 -124.9069 61° Northeast 527 606 33,400 -2,231 Descending Seattle Center
Tue 01:20:57 AM 46.3275 -124.6811 61° Northeast 533 613 30,900 -2,213 Descending Seattle Center
Tue 01:21:58 AM 46.3972 -124.4942 62° Northeast 530 610 28,900 -1,884 Descending Seattle Center
Tue 01:22:58 AM 46.4583 -124.3292 62° Northeast 530 610 27,100 -1,835 Descending Seattle Center
Tue 01:23:59 AM 46.5258 -124.1461 62° Northeast 520 598 25,200 -1,869 Descending Seattle Center
Tue 01:25:00 AM 46.5906 -123.9664 62° Northeast 507 583 23,300 -1,983 Descending Seattle Center
Tue 01:26:00 AM 46.6633 -123.7683 62° Northeast 492 566 21,200 -1,934 Descending Seattle Center
Tue 01:27:01 AM 46.7242 -123.5983 62° Northeast 483 556 19,400 -1,886 Descending Seattle Center
Tue 01:27:45 AM 46.7694 -123.4719 62° Northeast 468 539 17,900 -1,686 Descending Seattle Center
Tue 01:29:02 AM 46.8383 -123.2728 63° Northeast 450 518 16,000 -1,577 Descending Seattle Center
Tue 01:30:02 AM 46.8953 -123.1133 62° Northeast 414 476 14,300 -1,488 Descending Seattle Center
Tue 01:31:03 AM 46.9408 -122.9858 62° Northeast 355 409 13,000 -1,377 Descending Seattle Center
Tue 01:32:04 AM 46.9825 -122.8658 63° Northeast 331 381 11,500 -1,438 Descending Seattle Center
Tue 01:33:04 AM 47.0239 -122.7458 63° Northeast 310 357 10,100 -893 Descending Seattle Center
Tue 01:34:05 AM 47.0578 -122.6450 64° Northeast 280 322 9,700 -793 Descending Seattle Center
Tue 01:35:05 AM 47.0903 -122.5508 63° Northeast 262 302 8,500 -1,140 Descending Seattle Center
Tue 01:36:06 AM 47.1219 -122.4581 63° Northeast 256 295 7,400 -1,140 Descending Seattle Center
Tue 01:37:06 AM 47.1597 -122.3764 56° Northeast 244 281 6,200 -1,339 Descending Seattle Center
Tue 01:38:07 AM 47.2036 -122.3031 49° Northeast 240 276 4,700 -1,537 Descending Seattle Center
Tue 01:39:07 AM 47.2617 -122.2483 33° Northeast 229 264 3,100 -1,091 Descending Seattle Center
Tue 01:40:08 AM 47.3072 -122.2119 28° Northeast 187 215 2,500 -446 Descending Seattle Center
Tue 01:41:08 AM 47.3547 -122.2119 360° North 174 200 2,200 -149 Descending Seattle Center
Tue 01:42:09 AM 47.4028 -122.2122 360° North 173 199 2,200 -99 Level Seattle Center
Tue 01:43:09 AM 47.4394 -122.2269 345° North 139 160 2,000 -496 Descending Seattle Center
Tue 01:44:10 AM 47.4700 -122.2522 331° Northwest 128 147 1,200 -744 Descending Seattle Center
Tue 01:45:10 AM 47.5014 -122.2794 330° Northwest 124 143 500 -365 Descending Seattle Center
Tue 01:47:11 AM 47.5331 -122.3042 332° Northwest 53 61 100 -198 Descending Seattle Center

Login

Don't have an account? Register now (free) for customized features, flight alerts, and more!